createdAt,value
2019-03-16T00:02:37.497Z,99240.45
2019-03-16T00:05:43.325Z,99230.05
2019-03-16T00:08:49.070Z,99218.14
2019-03-16T00:11:54.930Z,99215.84
2019-03-16T00:15:00.710Z,99207.67
2019-03-16T00:18:07.767Z,99208.69
2019-03-16T00:21:13.555Z,99202.11
2019-03-16T00:24:19.257Z,99208.32
2019-03-16T00:27:25.120Z,99202.16
2019-03-16T00:30:30.846Z,99206.62
2019-03-16T00:33:36.616Z,99210.42
2019-03-16T00:36:42.372Z,99218.77
2019-03-16T00:39:48.199Z,99214.67
2019-03-16T00:42:53.913Z,99213.34
2019-03-16T00:45:59.682Z,99214.63
2019-03-16T00:49:06.508Z,99208.75
2019-03-16T00:52:12.328Z,99205.17
2019-03-16T00:55:19.176Z,99203.02
2019-03-16T00:58:24.953Z,99189.98
2019-03-16T01:01:30.745Z,99193.39
2019-03-16T01:04:36.485Z,99183.85
2019-03-16T01:07:42.312Z,99183.15
2019-03-16T01:10:48.037Z,99197.44
2019-03-16T01:13:54.761Z,99192.13
2019-03-16T01:17:00.492Z,99199.95
2019-03-16T01:20:06.877Z,99200.32
2019-03-16T01:23:13.637Z,99192.29
2019-03-16T01:26:19.400Z,99186.42
2019-03-16T01:29:25.128Z,99171.52
2019-03-16T01:32:40.173Z,99187.58
2019-03-16T01:35:38.282Z,99187.44
2019-03-16T01:38:44.210Z,99195.21
2019-03-16T01:41:50.075Z,99187.77
2019-03-16T01:44:55.835Z,99197.58
2019-03-16T01:48:01.565Z,99220.80
2019-03-16T01:51:07.280Z,99212.62
2019-03-16T01:54:12.988Z,99218.70
2019-03-16T01:57:18.797Z,99216.86
2019-03-16T02:00:24.568Z,99211.33
2019-03-16T02:03:30.306Z,99212.44
2019-03-16T02:06:36.034Z,99218.39
2019-03-16T02:09:41.774Z,99231.13
2019-03-16T02:12:47.601Z,99227.69
2019-03-16T02:15:53.360Z,99237.75
2019-03-16T02:18:59.279Z,99237.38
2019-03-16T02:22:04.997Z,99237.23
2019-03-16T02:25:10.914Z,99239.05
2019-03-16T02:28:16.733Z,99240.57
2019-03-16T02:31:22.464Z,99239.70
2019-03-16T02:34:28.216Z,99234.91
2019-03-16T02:37:34.011Z,99226.02
2019-03-16T02:40:39.773Z,99228.16
2019-03-16T02:43:45.525Z,99219.94
2019-03-16T02:46:51.551Z,99214.61
2019-03-16T02:49:57.280Z,99214.36
2019-03-16T02:53:03.034Z,99221.93
2019-03-16T02:56:08.767Z,99218.59
2019-03-16T02:59:14.508Z,99217.48
2019-03-16T03:02:20.230Z,99215.16
2019-03-16T03:05:26.006Z,99212.89
2019-03-16T03:08:31.890Z,99210.05
2019-03-16T03:11:37.663Z,99224.29
2019-03-16T03:14:43.500Z,99223.95
2019-03-16T03:17:50.545Z,99224.61
2019-03-16T03:20:56.305Z,99224.09
2019-03-16T03:24:02.065Z,99221.31
2019-03-16T03:27:07.866Z,99225.59
2019-03-16T03:30:13.878Z,99220.17
2019-03-16T03:33:19.593Z,99230.16
2019-03-16T03:36:25.493Z,99220.48
2019-03-16T03:39:31.507Z,99216.89
2019-03-16T03:42:37.270Z,99209.58
2019-03-16T03:45:43.056Z,99207.98
2019-03-16T03:48:48.968Z,99200.16
2019-03-16T03:51:54.769Z,99203.04
2019-03-16T03:55:00.924Z,99210.63
2019-03-16T03:58:06.952Z,99214.84
2019-03-16T04:01:12.993Z,99214.95
2019-03-16T04:04:18.879Z,99222.38
2019-03-16T04:07:24.668Z,99222.20
2019-03-16T04:10:30.486Z,99214.66
2019-03-16T04:13:36.296Z,99223.05
2019-03-16T04:16:42.107Z,99223.27
2019-03-16T04:19:47.941Z,99227.66
2019-03-16T04:22:53.782Z,99227.44
2019-03-16T04:25:59.521Z,99226.48
2019-03-16T04:29:05.316Z,99217.23
2019-03-16T04:32:11.035Z,99222.48
2019-03-16T04:35:16.825Z,99216.00
2019-03-16T04:38:22.609Z,99209.05
2019-03-16T04:41:28.362Z,99196.23
2019-03-16T04:44:34.069Z,99193.84
2019-03-16T04:47:39.836Z,99193.63
2019-03-16T04:50:46.572Z,99181.31
2019-03-16T04:53:52.323Z,99179.45
2019-03-16T04:56:58.188Z,99169.77
2019-03-16T05:00:04.609Z,99150.30
2019-03-16T05:03:11.569Z,99152.66
2019-03-16T05:06:17.378Z,99162.95
2019-03-16T05:09:23.159Z,99153.84
2019-03-16T05:12:28.904Z,99158.53
2019-03-16T05:15:34.665Z,99172.00
2019-03-16T05:18:40.565Z,99168.25
2019-03-16T05:21:47.288Z,99188.37
2019-03-16T05:24:53.103Z,99198.19
2019-03-16T05:27:58.873Z,99188.25
2019-03-16T05:31:04.640Z,99194.05
2019-03-16T05:34:10.412Z,99196.66
2019-03-16T05:37:16.121Z,99191.16
2019-03-16T05:40:21.832Z,99197.48
2019-03-16T05:43:27.535Z,99193.47
2019-03-16T05:46:33.246Z,99198.73
2019-03-16T05:49:38.977Z,99202.61
2019-03-16T05:52:44.757Z,99199.84
2019-03-16T05:55:50.457Z,99203.97
2019-03-16T05:58:56.166Z,99208.56
2019-03-16T06:02:01.899Z,99206.30
2019-03-16T06:05:10.768Z,99205.30
2019-03-16T06:08:15.413Z,99214.99
2019-03-16T06:11:21.134Z,99200.59
2019-03-16T06:14:27.017Z,99204.78
2019-03-16T06:17:32.813Z,99201.95
2019-03-16T06:20:38.659Z,99205.56
2019-03-16T06:23:44.408Z,99226.51
2019-03-16T06:26:50.170Z,99239.27
2019-03-16T06:29:55.995Z,99258.23
2019-03-16T06:33:05.451Z,99269.20
2019-03-16T06:36:11.221Z,99262.83
2019-03-16T06:39:16.997Z,99283.62
2019-03-16T06:42:22.723Z,99295.23
2019-03-16T06:45:28.477Z,99293.09
2019-03-16T06:48:34.196Z,99298.02
2019-03-16T06:51:39.934Z,99288.67
2019-03-16T06:54:45.679Z,99276.92
2019-03-16T06:57:51.374Z,99288.34
2019-03-16T07:00:58.254Z,99285.69
2019-03-16T07:04:04.111Z,99270.83
2019-03-16T07:07:09.850Z,99266.49
2019-03-16T07:10:15.666Z,99260.28
2019-03-16T07:13:21.425Z,99262.08
2019-03-16T07:16:27.272Z,99252.17
2019-03-16T07:19:34.021Z,99259.19
2019-03-16T07:22:39.868Z,99251.73
2019-03-16T07:25:45.611Z,99244.27
2019-03-16T07:28:51.343Z,99243.89
2019-03-16T07:31:57.108Z,99233.58
2019-03-16T07:35:02.980Z,99222.91
2019-03-16T07:38:08.734Z,99213.14
2019-03-16T07:41:14.772Z,99205.61
2019-03-16T07:44:20.525Z,99204.70
2019-03-16T07:47:26.384Z,99214.66
2019-03-16T07:50:32.107Z,99201.73
2019-03-16T07:53:37.862Z,99202.70
2019-03-16T07:56:43.577Z,99200.31
2019-03-16T07:59:49.731Z,99204.31
2019-03-16T08:02:56.012Z,99209.09
2019-03-16T08:06:01.899Z,99223.39
2019-03-16T08:09:08.160Z,99217.45
2019-03-16T08:12:13.979Z,99219.55
2019-03-16T08:15:19.796Z,99216.87
2019-03-16T08:18:25.759Z,99211.75
2019-03-16T08:21:31.588Z,99217.38
2019-03-16T08:24:37.306Z,99210.80
2019-03-16T08:27:53.675Z,99214.16
2019-03-16T08:30:50.609Z,99220.70
2019-03-16T08:33:56.379Z,99218.94
2019-03-16T08:37:02.257Z,99214.27
2019-03-16T08:40:08.404Z,99210.44
2019-03-16T08:43:15.137Z,99206.33
2019-03-16T08:46:20.957Z,99206.48
2019-03-16T08:49:26.875Z,99180.52
2019-03-16T08:52:32.698Z,99174.02
2019-03-16T08:55:38.558Z,99175.17
2019-03-16T08:58:44.256Z,99147.06
2019-03-16T09:01:50.000Z,99160.41
2019-03-16T09:04:55.862Z,99153.72
2019-03-16T09:08:01.619Z,99156.79
2019-03-16T09:11:07.508Z,99164.44
2019-03-16T09:14:13.394Z,99155.95
2019-03-16T09:17:19.088Z,99163.25
2019-03-16T09:20:24.878Z,99163.25
2019-03-16T09:23:31.796Z,99161.19
2019-03-16T09:26:41.358Z,99161.41
2019-03-16T09:29:47.171Z,99162.50
2019-03-16T09:32:52.982Z,99151.95
2019-03-16T09:35:58.704Z,99162.32
2019-03-16T09:39:06.107Z,99162.77
2019-03-16T09:42:11.820Z,99154.50
2019-03-16T09:45:17.622Z,99138.31
2019-03-16T09:48:23.331Z,99132.47
2019-03-16T09:51:29.021Z,99136.83
2019-03-16T09:54:34.775Z,99134.28
2019-03-16T09:57:40.456Z,99129.17
2019-03-16T10:00:46.209Z,99125.94
2019-03-16T10:03:51.934Z,99118.88
2019-03-16T10:06:57.674Z,99100.44
2019-03-16T10:10:03.401Z,99102.50
2019-03-16T10:13:09.109Z,99103.95
2019-03-16T10:16:14.905Z,99104.38
2019-03-16T10:19:20.700Z,99105.38
2019-03-16T10:22:26.427Z,99102.05
2019-03-16T10:25:32.156Z,99106.28
2019-03-16T10:28:43.583Z,99098.32
2019-03-16T10:31:45.291Z,99097.33
2019-03-16T10:34:51.046Z,99087.30
2019-03-16T10:37:56.759Z,99068.23
2019-03-16T10:41:02.558Z,99054.34
2019-03-16T10:44:08.244Z,99040.68
2019-03-16T10:47:14.141Z,99025.28
2019-03-16T10:50:19.889Z,99025.36
2019-03-16T10:53:25.649Z,99029.26
2019-03-16T10:56:31.390Z,99012.25
2019-03-16T10:59:37.169Z,99011.66
2019-03-16T11:02:42.924Z,98990.23
2019-03-16T11:05:48.639Z,98982.55
2019-03-16T11:08:54.449Z,98978.80
2019-03-16T11:12:00.226Z,98968.93
2019-03-16T11:15:06.232Z,98965.19
2019-03-16T11:18:12.037Z,98964.37
2019-03-16T11:21:17.751Z,98969.89
2019-03-16T11:24:23.598Z,98962.08
2019-03-16T11:27:29.368Z,98954.72
2019-03-16T11:30:35.185Z,98942.83
2019-03-16T11:33:40.873Z,98935.14
2019-03-16T11:36:46.671Z,98926.46
2019-03-16T11:39:52.366Z,98918.45
2019-03-16T11:42:58.105Z,98924.12
2019-03-16T11:46:03.854Z,98921.11
2019-03-16T11:49:09.613Z,98912.38
2019-03-16T11:52:15.330Z,98916.94
2019-03-16T11:55:21.074Z,98915.34
2019-03-16T11:58:26.817Z,98912.19
2019-03-16T12:01:32.530Z,98898.68
2019-03-16T12:04:38.295Z,98904.61
2019-03-16T12:07:44.020Z,98896.13
2019-03-16T12:10:49.877Z,98895.53
2019-03-16T12:13:55.552Z,98894.58
2019-03-16T12:17:01.294Z,98896.80
2019-03-16T12:20:07.813Z,98886.40
2019-03-16T12:23:13.572Z,98898.45
2019-03-16T12:26:20.275Z,98898.23
2019-03-16T12:29:34.083Z,98892.58
2019-03-16T12:32:33.600Z,98882.61
2019-03-16T12:35:39.351Z,98878.66
2019-03-16T12:38:45.101Z,98883.13
2019-03-16T12:41:50.905Z,98881.09
2019-03-16T12:44:56.864Z,98901.72
2019-03-16T12:48:02.636Z,98907.51
2019-03-16T12:51:08.443Z,98909.09
2019-03-16T12:54:14.375Z,98909.31
2019-03-16T12:57:20.079Z,98914.51
2019-03-16T13:00:25.875Z,98915.59
2019-03-16T13:03:31.608Z,98915.25
2019-03-16T13:06:37.324Z,98920.34
2019-03-16T13:09:43.035Z,98922.62
2019-03-16T13:12:48.759Z,98937.28
2019-03-16T13:15:54.512Z,98921.66
2019-03-16T13:19:00.231Z,98937.69
2019-03-16T13:22:07.018Z,98935.39
2019-03-16T13:25:13.916Z,98946.23
2019-03-16T13:28:19.649Z,98941.78
2019-03-16T13:31:25.447Z,98945.08
2019-03-16T13:34:31.211Z,98949.63
2019-03-16T13:37:37.025Z,98954.27
2019-03-16T13:40:42.945Z,98944.10
2019-03-16T13:43:48.706Z,98956.64
2019-03-16T13:46:54.431Z,98953.62
2019-03-16T13:50:00.340Z,98956.06
2019-03-16T13:53:06.067Z,98954.73
2019-03-16T13:56:12.047Z,98955.69
2019-03-16T13:59:18.039Z,98957.70
2019-03-16T14:02:24.151Z,98956.97
2019-03-16T14:05:31.000Z,98958.05
2019-03-16T14:08:36.755Z,98960.06
2019-03-16T14:11:42.507Z,98963.42
2019-03-16T14:14:48.234Z,98965.13
2019-03-16T14:17:53.963Z,98965.20
2019-03-16T14:21:00.000Z,98968.16
2019-03-16T14:24:05.880Z,98971.89
2019-03-16T14:27:12.749Z,98972.21
2019-03-16T14:30:29.445Z,98969.41
2019-03-16T14:33:27.182Z,98969.98
2019-03-16T14:36:32.877Z,98967.98
2019-03-16T14:39:38.569Z,98964.72
2019-03-16T14:42:44.575Z,98966.91
2019-03-16T14:45:50.624Z,98970.24
2019-03-16T14:48:56.526Z,98961.55
2019-03-16T14:52:02.262Z,98972.74
2019-03-16T14:55:08.213Z,98971.87
2019-03-16T14:58:15.100Z,98968.79
2019-03-16T15:01:20.848Z,98972.41
2019-03-16T15:04:26.699Z,98971.98
2019-03-16T15:07:32.551Z,98973.66
2019-03-16T15:10:38.298Z,98971.00
2019-03-16T15:13:44.053Z,98975.65
2019-03-16T15:16:51.021Z,98973.32
2019-03-16T15:19:56.802Z,98981.68
2019-03-16T15:23:02.648Z,98986.25
2019-03-16T15:26:08.432Z,98987.84
2019-03-16T15:29:14.233Z,98990.66
2019-03-16T15:32:20.038Z,98999.45
2019-03-16T15:35:25.998Z,98997.11
2019-03-16T15:38:31.815Z,98998.26
2019-03-16T15:41:37.701Z,99006.03
2019-03-16T15:44:43.582Z,99016.28
2019-03-16T15:47:49.326Z,99015.12
2019-03-16T15:50:55.144Z,99022.66
2019-03-16T15:54:00.929Z,99026.55
2019-03-16T15:57:07.220Z,99027.67
2019-03-16T16:00:13.851Z,99024.23
2019-03-16T16:03:19.939Z,99034.63
2019-03-16T16:06:25.843Z,99035.72
2019-03-16T16:09:31.688Z,99027.95
2019-03-16T16:12:37.556Z,99036.01
2019-03-16T16:15:43.429Z,99042.67
2019-03-16T16:18:49.415Z,99036.67
2019-03-16T16:21:55.561Z,99037.27
2019-03-16T16:25:01.322Z,99040.88
2019-03-16T16:28:07.154Z,99037.73
2019-03-16T16:31:16.645Z,99047.22
2019-03-16T16:34:20.591Z,99043.77
2019-03-16T16:37:26.552Z,99038.42
2019-03-16T16:40:32.288Z,99044.81
2019-03-16T16:43:38.037Z,99048.27
2019-03-16T16:46:43.891Z,99061.89
2019-03-16T16:49:49.734Z,99064.83
2019-03-16T16:52:55.807Z,99069.16
2019-03-16T16:56:01.537Z,99071.83
2019-03-16T16:59:07.334Z,99070.69
2019-03-16T17:02:13.049Z,99079.34
2019-03-16T17:05:18.997Z,99070.09
2019-03-16T17:08:25.874Z,99072.73
2019-03-16T17:11:31.721Z,99092.91
2019-03-16T17:14:37.657Z,99088.61
2019-03-16T17:17:43.588Z,99094.41
2019-03-16T17:20:49.374Z,99095.85
2019-03-16T17:23:55.207Z,99087.87
2019-03-16T17:27:01.126Z,99094.55
2019-03-16T17:30:13.057Z,99096.39
2019-03-16T17:33:18.935Z,99093.36
2019-03-16T17:36:24.676Z,99111.85
2019-03-16T17:39:30.566Z,99111.85
2019-03-16T17:42:36.454Z,99114.50
2019-03-16T17:45:42.193Z,99119.28
2019-03-16T17:48:48.093Z,99128.21
2019-03-16T17:51:53.937Z,99128.62
2019-03-16T17:54:59.750Z,99121.02
2019-03-16T17:58:05.660Z,99140.88
2019-03-16T18:01:11.497Z,99147.07
2019-03-16T18:04:17.351Z,99147.07
2019-03-16T18:07:23.132Z,99151.22
2019-03-16T18:10:29.132Z,99151.22
2019-03-16T18:13:34.929Z,99151.22
2019-03-16T18:16:40.728Z,99152.12
2019-03-16T18:19:46.813Z,99153.94
2019-03-16T18:22:52.553Z,99153.94
2019-03-16T18:25:58.391Z,99156.33
2019-03-16T18:29:04.248Z,99156.33
2019-03-16T18:32:10.152Z,99157.45
2019-03-16T18:35:15.916Z,99163.33
2019-03-16T18:38:21.708Z,99165.20
2019-03-16T18:41:27.457Z,99170.63
2019-03-16T18:44:33.231Z,99165.27
2019-03-16T18:47:39.157Z,99178.14
2019-03-16T18:50:46.001Z,99178.14
2019-03-16T18:53:51.859Z,99168.87
2019-03-16T18:56:57.617Z,99192.31
2019-03-16T19:00:03.669Z,99194.55
2019-03-16T19:03:11.677Z,99205.93
2019-03-16T19:06:17.022Z,99207.40
2019-03-16T19:09:23.259Z,99208.97
2019-03-16T19:12:29.243Z,99207.80
2019-03-16T19:15:35.071Z,99214.17
2019-03-16T19:18:41.010Z,99217.74
2019-03-16T19:21:46.917Z,99215.61
2019-03-16T19:24:52.697Z,99219.20
2019-03-16T19:27:58.631Z,99223.34
2019-03-16T19:31:04.545Z,99223.08
2019-03-16T19:34:10.478Z,99224.30
2019-03-16T19:37:16.460Z,99229.06
2019-03-16T19:40:22.411Z,99225.11
2019-03-16T19:43:28.193Z,99232.70
2019-03-16T19:46:34.019Z,99235.88
2019-03-16T19:49:40.821Z,99230.45
2019-03-16T19:52:46.834Z,99236.09
2019-03-16T19:55:52.938Z,99238.34
2019-03-16T19:59:00.872Z,99240.72
2019-03-16T20:02:06.424Z,99242.58
2019-03-16T20:05:12.582Z,99243.78
2019-03-16T20:08:18.537Z,99243.25
2019-03-16T20:11:24.584Z,99246.99
2019-03-16T20:14:30.502Z,99254.22
2019-03-16T20:17:36.431Z,99268.52
2019-03-16T20:20:42.436Z,99272.37
2019-03-16T20:23:48.288Z,99273.19
2019-03-16T20:26:54.238Z,99280.53
2019-03-16T20:29:59.985Z,99292.44
2019-03-16T20:33:05.960Z,99293.04
2019-03-16T20:36:11.770Z,99297.03
2019-03-16T20:39:17.738Z,99298.56
2019-03-16T20:42:23.561Z,99306.39
2019-03-16T20:45:29.567Z,99320.34
2019-03-16T20:48:35.619Z,99326.30
2019-03-16T20:51:41.489Z,99337.59
2019-03-16T20:54:47.275Z,99333.96
2019-03-16T20:57:53.102Z,99339.27
2019-03-16T21:00:58.992Z,99347.55
2019-03-16T21:04:05.068Z,99349.95
2019-03-16T21:07:10.848Z,99358.36
2019-03-16T21:10:16.725Z,99360.19
2019-03-16T21:13:22.409Z,99363.15
2019-03-16T21:16:28.245Z,99369.29
2019-03-16T21:19:34.167Z,99372.38
2019-03-16T21:22:39.971Z,99369.47
2019-03-16T21:25:46.052Z,99360.69
2019-03-16T21:28:51.985Z,99372.86
2019-03-16T21:31:58.438Z,99373.19
2019-03-16T21:35:04.354Z,99387.98
2019-03-16T21:38:10.146Z,99386.98
2019-03-16T21:41:15.922Z,99392.64
2019-03-16T21:44:21.868Z,99392.52
2019-03-16T21:47:27.687Z,99394.34
2019-03-16T21:50:33.583Z,99392.81
2019-03-16T21:53:39.398Z,99394.08
2019-03-16T21:56:45.317Z,99386.05
2019-03-16T21:59:51.175Z,99386.11
2019-03-16T22:02:56.929Z,99383.03
2019-03-16T22:06:03.093Z,99379.08
2019-03-16T22:09:09.914Z,99375.13
2019-03-16T22:12:15.751Z,99379.90
2019-03-16T22:15:21.507Z,99383.68
2019-03-16T22:18:27.362Z,99381.77
2019-03-16T22:21:33.221Z,99379.63
2019-03-16T22:24:39.132Z,99378.08
2019-03-16T22:27:45.054Z,99368.44
2019-03-16T22:30:50.798Z,99370.94
2019-03-16T22:33:56.657Z,99374.50
2019-03-16T22:37:02.599Z,99383.34
2019-03-16T22:40:08.642Z,99390.20
2019-03-16T22:43:15.619Z,99392.25
2019-03-16T22:46:21.585Z,99388.06
2019-03-16T22:49:27.353Z,99400.28
2019-03-16T22:52:33.320Z,99399.34
2019-03-16T22:55:40.087Z,99400.43
2019-03-16T22:58:45.881Z,99400.61
2019-03-16T23:01:51.757Z,99398.91
2019-03-16T23:04:57.530Z,99394.13
2019-03-16T23:08:03.368Z,99390.13
2019-03-16T23:11:09.133Z,99393.58
2019-03-16T23:14:14.906Z,99395.54
2019-03-16T23:17:20.608Z,99385.17
2019-03-16T23:20:26.458Z,99386.87
2019-03-16T23:23:32.399Z,99392.14
2019-03-16T23:26:38.979Z,99393.52
2019-03-16T23:29:44.984Z,99394.52
2019-03-16T23:32:51.129Z,99393.57
2019-03-16T23:35:57.314Z,99396.08
2019-03-16T23:39:03.841Z,99400.33
2019-03-16T23:42:09.673Z,99401.19
2019-03-16T23:45:15.634Z,99406.41
2019-03-16T23:48:21.470Z,99401.45
2019-03-16T23:51:27.276Z,99407.13
2019-03-16T23:54:33.206Z,99404.53
2019-03-16T23:57:39.126Z,99405.31
